RJOO/ITM METAR and TAF weather

Enter ICAO airport designator
Station Type Date Time Source
RJOO METAR 2020/10/29 11:00 UTC NOAA

RJOO 291100Z 34006KT 9999 FEW035 BKN/// 15/07 Q1020


Station Type Date Time Source
RJOO Decoded METAR 2020/10/29 11:00 UTC NOAA

Osaka International Airport, Japan (RJOO) 34-47N 135-27E 15M
Oct 29, 2020 - 07:00 AM EDT / 2020.10.29 1100 UTC
Wind: from the NNW (340 degrees) at 7 MPH (6 KT):0
Visibility: greater than 7 mile(s):0
Sky conditions: mostly cloudy
Temperature: 59 F (15 C)
Dew Point: 44 F (7 C)
Relative Humidity: 58%
Pressure (altimeter): 30.12 in. Hg (1020 hPa)
ob: RJOO 291100Z 34006KT 9999 FEW035 BKN/// 15/07 Q1020
cycle: 11

Station Type Date Time Source
RJOO TAF 2020/10/29 12:30 UTC NOAA

TAF RJOO 291107Z 2912/3018 35007KT 9999 FEW035

Example: see airport list